Aviation Digital Data Service (ADDS)

Output produced by METARs form (0220 UTC 16 July 2019)
found at http://www.aviationweather.gov/metar/data/
 
METAR text: KPDX 160153Z 26006KT 10SM FEW040 BKN060 BKN080 BKN130 24/14 A3003 RMK AO2 SLP169 T02440139
Conditions at: KPDX (PORTLAND , OR, US) observed 0153 UTC 16 July 2019
Temperature: 24.4°C (76°F)
Dewpoint: 13.9°C (57°F) [RH = 52%]
Pressure (altimeter): 30.03 inches Hg (1017.0 mb)
[Sea-level pressure: 1016.9 mb]
Winds: from the W (260 degrees) at 7 MPH (6 knots; 3.1 m/s)
Visibility: 10 or more miles (16+ km)
Ceiling: 6000 feet AGL
Clouds: few clouds at 4000 feet AGL
broken clouds at 6000 feet AGL
broken clouds at 8000 feet AGL
broken clouds at 13000 feet AGL
Weather: no significant weather observed at this time

METAR text: KPDX 160053Z 26007KT 10SM SCT050 BKN080 BKN130 25/13 A3004 RMK AO2 SLP171 T02500133
Conditions at: KPDX (PORTLAND , OR, US) observed 0053 UTC 16 July 2019
Temperature: 25.0°C (77°F)
Dewpoint: 13.3°C (56°F) [RH = 48%]
Pressure (altimeter): 30.04 inches Hg (1017.4 mb)
[Sea-level pressure: 1017.1 mb]
Winds: from the W (260 degrees) at 8 MPH (7 knots; 3.6 m/s)
Visibility: 10 or more miles (16+ km)
Ceiling: 8000 feet AGL
Clouds: scattered clouds at 5000 feet AGL
broken clouds at 8000 feet AGL
broken clouds at 13000 feet AGL
Weather: no significant weather observed at this time

METAR text: KPDX 152353Z 00000KT 10SM FEW040 BKN060 BKN075 24/14 A3005 RMK AO2 SLP176 60000 T02440144 10250 20194 56013
Conditions at: KPDX (PORTLAND , OR, US) observed 2353 UTC 15 July 2019
Temperature: 24.4°C (76°F)
Dewpoint: 14.4°C (58°F) [RH = 54%]
Pressure (altimeter): 30.05 inches Hg (1017.7 mb)
[Sea-level pressure: 1017.6 mb]
Winds: calm
Visibility: 10 or more miles (16+ km)
Ceiling: 6000 feet AGL
Clouds: few clouds at 4000 feet AGL
broken clouds at 6000 feet AGL
broken clouds at 7500 feet AGL
Weather: no significant weather observed at this time

METAR text: KPDX 152253Z 03004KT 10SM BKN050 BKN080 24/14 A3006 RMK AO2 SLP179 T02390139
Conditions at: KPDX (PORTLAND , OR, US) observed 2253 UTC 15 July 2019
Temperature: 23.9°C (75°F)
Dewpoint: 13.9°C (57°F) [RH = 54%]
Pressure (altimeter): 30.06 inches Hg (1018.0 mb)
[Sea-level pressure: 1017.9 mb]
Winds: from the NNE (30 degrees) at 5 MPH (4 knots; 2.1 m/s)
Visibility: 10 or more miles (16+ km)
Ceiling: 5000 feet AGL
Clouds: broken clouds at 5000 feet AGL
broken clouds at 8000 feet AGL
Weather: no significant weather observed at this time

METAR text: KPDX 152153Z 36004KT 10SM SCT032 BKN041 22/14 A3008 RMK AO2 SLP185 T02220139
Conditions at: KPDX (PORTLAND , OR, US) observed 2153 UTC 15 July 2019
Temperature: 22.2°C (72°F)
Dewpoint: 13.9°C (57°F) [RH = 59%]
Pressure (altimeter): 30.08 inches Hg (1018.7 mb)
[Sea-level pressure: 1018.5 mb]
Winds: from the N (360 degrees) at 5 MPH (4 knots; 2.1 m/s)
Visibility: 10 or more miles (16+ km)
Ceiling: 4100 feet AGL
Clouds: scattered clouds at 3200 feet AGL
broken clouds at 4100 feet AGL
Weather: no significant weather observed at this time

METAR text: KPDX 152126Z 00000KT 10SM BKN030 23/14 A3008 RMK AO2 T02280139
Conditions at: KPDX (PORTLAND , OR, US) observed 2126 UTC 15 July 2019
Temperature: 22.8°C (73°F)
Dewpoint: 13.9°C (57°F) [RH = 57%]
Pressure (altimeter): 30.08 inches Hg (1018.7 mb)
Winds: calm
Visibility: 10 or more miles (16+ km)
Ceiling: 3000 feet AGL
Clouds: broken clouds at 3000 feet AGL
Weather: no significant weather observed at this time

METAR text: KPDX 152053Z 20005KT 10SM BKN029 21/13 A3009 RMK AO2 SLP189 60000 T02110133 58004
Conditions at: KPDX (PORTLAND , OR, US) observed 2053 UTC 15 July 2019
Temperature: 21.1°C (70°F)
Dewpoint: 13.3°C (56°F) [RH = 61%]
Pressure (altimeter): 30.09 inches Hg (1019.0 mb)
[Sea-level pressure: 1018.9 mb]
Winds: from the SSW (200 degrees) at 6 MPH (5 knots; 2.6 m/s)
Visibility: 10 or more miles (16+ km)
Ceiling: 2900 feet AGL
Clouds: broken clouds at 2900 feet AGL
Weather: no significant weather observed at this time

METAR text: KPDX 152028Z 23006KT 10SM BKN029 22/13 A3009 RMK AO2 T02170133
Conditions at: KPDX (PORTLAND , OR, US) observed 2028 UTC 15 July 2019
Temperature: 21.7°C (71°F)
Dewpoint: 13.3°C (56°F) [RH = 59%]
Pressure (altimeter): 30.09 inches Hg (1019.0 mb)
Winds: from the SW (230 degrees) at 7 MPH (6 knots; 3.1 m/s)
Visibility: 10 or more miles (16+ km)
Ceiling: 2900 feet AGL
Clouds: broken clouds at 2900 feet AGL
Weather: no significant weather observed at this time

METAR text: KPDX 151953Z 21009KT 10SM SCT025 BKN030 BKN035 22/13 A3010 RMK AO2 SLP190 T02170128
Conditions at: KPDX (PORTLAND , OR, US) observed 1953 UTC 15 July 2019
Temperature: 21.7°C (71°F)
Dewpoint: 12.8°C (55°F) [RH = 57%]
Pressure (altimeter): 30.10 inches Hg (1019.4 mb)
[Sea-level pressure: 1019.0 mb]
Winds: from the SSW (210 degrees) at 10 MPH (9 knots; 4.6 m/s)
Visibility: 10 or more miles (16+ km)
Ceiling: 3000 feet AGL
Clouds: scattered clouds at 2500 feet AGL
broken clouds at 3000 feet AGL
broken clouds at 3500 feet AGL
Weather: no significant weather observed at this time

METAR text: KPDX 151853Z VRB04KT 10SM SCT025 OVC038 20/14 A3011 RMK AO2 RAE20 SLP193 P0000 T02000144
Conditions at: KPDX (PORTLAND , OR, US) observed 1853 UTC 15 July 2019
Temperature: 20.0°C (68°F)
Dewpoint: 14.4°C (58°F) [RH = 70%]
Pressure (altimeter): 30.11 inches Hg (1019.7 mb)
[Sea-level pressure: 1019.3 mb]
Winds: variable direction winds at 5 MPH (4 knots; 2.1 m/s)
Visibility: 10 or more miles (16+ km)
Ceiling: 3800 feet AGL
Clouds: scattered clouds at 2500 feet AGL
overcast cloud deck at 3800 feet AGL
Weather: no significant weather observed at this time

METAR text: KPDX 151753Z 11003KT 10SM -RA BKN029 OVC085 20/13 A3010 RMK AO2 RAB50 SLP192 P0000 60001 T02000133 10200 20178 52001
Conditions at: KPDX (PORTLAND , OR, US) observed 1753 UTC 15 July 2019
Temperature: 20.0°C (68°F)
Dewpoint: 13.3°C (56°F) [RH = 65%]
Pressure (altimeter): 30.10 inches Hg (1019.4 mb)
[Sea-level pressure: 1019.2 mb]
Winds: from the ESE (110 degrees) at 3 MPH (3 knots; 1.5 m/s)
Visibility: 10 or more miles (16+ km)
Ceiling: 2900 feet AGL
Clouds: broken clouds at 2900 feet AGL
overcast cloud deck at 8500 feet AGL
Weather: -RA  (light rain)

METAR text: KPDX 151653Z 04004KT 10SM BKN024 BKN065 OVC100 19/14 A3010 RMK AO2 SLP191 T01940139
Conditions at: KPDX (PORTLAND , OR, US) observed 1653 UTC 15 July 2019
Temperature: 19.4°C (67°F)
Dewpoint: 13.9°C (57°F) [RH = 71%]
Pressure (altimeter): 30.10 inches Hg (1019.4 mb)
[Sea-level pressure: 1019.1 mb]
Winds: from the NE (40 degrees) at 5 MPH (4 knots; 2.1 m/s)
Visibility: 10 or more miles (16+ km)
Ceiling: 2400 feet AGL
Clouds: broken clouds at 2400 feet AGL
broken clouds at 6500 feet AGL
overcast cloud deck at 10000 feet AGL
Weather: no significant weather observed at this time

METAR text: KPDX 151553Z VRB03KT 10SM SCT024 BKN065 OVC100 19/15 A3010 RMK AO2 RAE00 SLP192 P0000 T01940150
Conditions at: KPDX (PORTLAND , OR, US) observed 1553 UTC 15 July 2019
Temperature: 19.4°C (67°F)
Dewpoint: 15.0°C (59°F) [RH = 76%]
Pressure (altimeter): 30.10 inches Hg (1019.4 mb)
[Sea-level pressure: 1019.2 mb]
Winds: variable direction winds at 3 MPH (3 knots; 1.5 m/s)
Visibility: 10 or more miles (16+ km)
Ceiling: 6500 feet AGL
Clouds: scattered clouds at 2400 feet AGL
broken clouds at 6500 feet AGL
overcast cloud deck at 10000 feet AGL
Weather: no significant weather observed at this time

METAR text: KPDX 151453Z 36003KT 10SM -RA BKN025 BKN038 OVC055 18/14 A3010 RMK AO2 RAB06 SLP191 P0001 60001 T01830144 51012
Conditions at: KPDX (PORTLAND , OR, US) observed 1453 UTC 15 July 2019
Temperature: 18.3°C (65°F)
Dewpoint: 14.4°C (58°F) [RH = 78%]
Pressure (altimeter): 30.10 inches Hg (1019.4 mb)
[Sea-level pressure: 1019.1 mb]
Winds: from the N (360 degrees) at 3 MPH (3 knots; 1.5 m/s)
Visibility: 10 or more miles (16+ km)
Ceiling: 2500 feet AGL
Clouds: broken clouds at 2500 feet AGL
broken clouds at 3800 feet AGL
overcast cloud deck at 5500 feet AGL
Weather: -RA  (light rain)

METAR text: KPDX 151412Z 00000KT 10SM -RA BKN026 OVC033 19/14 A3009 RMK AO2 RAB06 P0000 T01890139
Conditions at: KPDX (PORTLAND , OR, US) observed 1412 UTC 15 July 2019
Temperature: 18.9°C (66°F)
Dewpoint: 13.9°C (57°F) [RH = 73%]
Pressure (altimeter): 30.09 inches Hg (1019.0 mb)
Winds: calm
Visibility: 10 or more miles (16+ km)
Ceiling: 2600 feet AGL
Clouds: broken clouds at 2600 feet AGL
overcast cloud deck at 3300 feet AGL
Weather: -RA  (light rain)

METAR text: KPDX 151353Z 00000KT 10SM FEW026 BKN032 OVC043 19/14 A3009 RMK AO2 RAB1255E11 SLP187 P0000 T01940139
Conditions at: KPDX (PORTLAND , OR, US) observed 1353 UTC 15 July 2019
Temperature: 19.4°C (67°F)
Dewpoint: 13.9°C (57°F) [RH = 71%]
Pressure (altimeter): 30.09 inches Hg (1019.0 mb)
[Sea-level pressure: 1018.7 mb]
Winds: calm
Visibility: 10 or more miles (16+ km)
Ceiling: 3200 feet AGL
Clouds: few clouds at 2600 feet AGL
broken clouds at 3200 feet AGL
overcast cloud deck at 4300 feet AGL
Weather: no significant weather observed at this time

METAR text: KPDX 151253Z 00000KT 10SM FEW020 SCT050 BKN095 20/14 A3008 RMK AO2 SLP185 T02000139
Conditions at: KPDX (PORTLAND , OR, US) observed 1253 UTC 15 July 2019
Temperature: 20.0°C (68°F)
Dewpoint: 13.9°C (57°F) [RH = 68%]
Pressure (altimeter): 30.08 inches Hg (1018.7 mb)
[Sea-level pressure: 1018.5 mb]
Winds: calm
Visibility: 10 or more miles (16+ km)
Ceiling: 9500 feet AGL
Clouds: few clouds at 2000 feet AGL
scattered clouds at 5000 feet AGL
broken clouds at 9500 feet AGL
Weather: no significant weather observed at this time

METAR text: KPDX 151153Z 00000KT 10SM BKN080 OVC095 20/13 A3007 RMK AO2 SLP179 T02000133 10222 20200 52008
Conditions at: KPDX (PORTLAND , OR, US) observed 1153 UTC 15 July 2019
Temperature: 20.0°C (68°F)
Dewpoint: 13.3°C (56°F) [RH = 65%]
Pressure (altimeter): 30.07 inches Hg (1018.4 mb)
[Sea-level pressure: 1017.9 mb]
Winds: calm
Visibility: 10 or more miles (16+ km)
Ceiling: 8000 feet AGL
Clouds: broken clouds at 8000 feet AGL
overcast cloud deck at 9500 feet AGL
Weather: no significant weather observed at this time

METAR text: KPDX 151053Z 36003KT 10SM FEW060 OVC100 21/13 A3005 RMK AO2 SLP175 T02060133
Conditions at: KPDX (PORTLAND , OR, US) observed 1053 UTC 15 July 2019
Temperature: 20.6°C (69°F)
Dewpoint: 13.3°C (56°F) [RH = 63%]
Pressure (altimeter): 30.05 inches Hg (1017.7 mb)
[Sea-level pressure: 1017.5 mb]
Winds: from the N (360 degrees) at 3 MPH (3 knots; 1.5 m/s)
Visibility: 10 or more miles (16+ km)
Ceiling: 10000 feet AGL
Clouds: few clouds at 6000 feet AGL
overcast cloud deck at 10000 feet AGL
Weather: no significant weather observed at this time

METAR text: KPDX 150953Z 00000KT 10SM OVC080 21/13 A3005 RMK AO2 SLP175 T02110133
Conditions at: KPDX (PORTLAND , OR, US) observed 0953 UTC 15 July 2019
Temperature: 21.1°C (70°F)
Dewpoint: 13.3°C (56°F) [RH = 61%]
Pressure (altimeter): 30.05 inches Hg (1017.7 mb)
[Sea-level pressure: 1017.5 mb]
Winds: calm
Visibility: 10 or more miles (16+ km)
Ceiling: 8000 feet AGL
Clouds: overcast cloud deck at 8000 feet AGL
Weather: no significant weather observed at this time

METAR text: KPDX 150853Z 00000KT 10SM SCT070 BKN140 OVC250 21/13 A3004 RMK AO2 SLP171 T02060133 53004
Conditions at: KPDX (PORTLAND , OR, US) observed 0853 UTC 15 July 2019
Temperature: 20.6°C (69°F)
Dewpoint: 13.3°C (56°F) [RH = 63%]
Pressure (altimeter): 30.04 inches Hg (1017.4 mb)
[Sea-level pressure: 1017.1 mb]
Winds: calm
Visibility: 10 or more miles (16+ km)
Ceiling: 14000 feet AGL
Clouds: scattered clouds at 7000 feet AGL
broken clouds at 14000 feet AGL
overcast cloud deck at 25000 feet AGL
Weather: no significant weather observed at this time

METAR text: KPDX 150753Z 31006KT 10SM BKN140 OVC170 21/13 A3004 RMK AO2 SLP169 T02110133 402940167
Conditions at: KPDX (PORTLAND , OR, US) observed 0753 UTC 15 July 2019
Temperature: 21.1°C (70°F)
Dewpoint: 13.3°C (56°F) [RH = 61%]
Pressure (altimeter): 30.04 inches Hg (1017.4 mb)
[Sea-level pressure: 1016.9 mb]
Winds: from the NW (310 degrees) at 7 MPH (6 knots; 3.1 m/s)
Visibility: 10 or more miles (16+ km)
Ceiling: 14000 feet AGL
Clouds: broken clouds at 14000 feet AGL
overcast cloud deck at 17000 feet AGL
Weather: no significant weather observed at this time

METAR text: KPDX 150653Z 33007KT 10SM OVC120 22/13 A3003 RMK AO2 SLP167 T02170133
Conditions at: KPDX (PORTLAND , OR, US) observed 0653 UTC 15 July 2019
Temperature: 21.7°C (71°F)
Dewpoint: 13.3°C (56°F) [RH = 59%]
Pressure (altimeter): 30.03 inches Hg (1017.0 mb)
[Sea-level pressure: 1016.7 mb]
Winds: from the NNW (330 degrees) at 8 MPH (7 knots; 3.6 m/s)
Visibility: 10 or more miles (16+ km)
Ceiling: 12000 feet AGL
Clouds: overcast cloud deck at 12000 feet AGL
Weather: no significant weather observed at this time

METAR text: KPDX 150553Z 32007KT 10SM FEW160 SCT250 22/13 A3003 RMK AO2 SLP167 T02220133 10294 20222 53010
Conditions at: KPDX (PORTLAND , OR, US) observed 0553 UTC 15 July 2019
Temperature: 22.2°C (72°F)
Dewpoint: 13.3°C (56°F) [RH = 57%]
Pressure (altimeter): 30.03 inches Hg (1017.0 mb)
[Sea-level pressure: 1016.7 mb]
Winds: from the NW (320 degrees) at 8 MPH (7 knots; 3.6 m/s)
Visibility: 10 or more miles (16+ km)
Ceiling: at least 12,000 feet AGL
Clouds: few clouds at 16000 feet AGL
scattered clouds at 25000 feet AGL
Weather: no significant weather observed at this time

METAR text: KPDX 150453Z 33009G16KT 10SM FEW070 FEW160 FEW250 24/13 A3002 RMK AO2 SLP163 T02390128
Conditions at: KPDX (PORTLAND , OR, US) observed 0453 UTC 15 July 2019
Temperature: 23.9°C (75°F)
Dewpoint: 12.8°C (55°F) [RH = 50%]
Pressure (altimeter): 30.02 inches Hg (1016.7 mb)
[Sea-level pressure: 1016.3 mb]
Winds: from the NNW (330 degrees) at 10 MPH (9 knots; 4.6 m/s)
gusting to 18 MPH (16 knots; 8.2 m/s)
Visibility: 10 or more miles (16+ km)
Ceiling: at least 12,000 feet AGL
Clouds: few clouds at 7000 feet AGL
few clouds at 16000 feet AGL
few clouds at 25000 feet AGL
Weather: no significant weather observed at this time

METAR text: KPDX 150353Z 32007KT 10SM FEW070 FEW160 FEW250 25/14 A3000 RMK AO2 SLP158 ACSL SE T02500139
Conditions at: KPDX (PORTLAND , OR, US) observed 0353 UTC 15 July 2019
Temperature: 25.0°C (77°F)
Dewpoint: 13.9°C (57°F) [RH = 50%]
Pressure (altimeter): 30.00 inches Hg (1016.0 mb)
[Sea-level pressure: 1015.8 mb]
Winds: from the NW (320 degrees) at 8 MPH (7 knots; 3.6 m/s)
Visibility: 10 or more miles (16+ km)
Ceiling: at least 12,000 feet AGL
Clouds: few clouds at 7000 feet AGL
few clouds at 16000 feet AGL
few clouds at 25000 feet AGL
Weather: no significant weather observed at this time

METAR text: KPDX 150253Z 32009KT 10SM FEW070 FEW160 FEW250 28/10 A2999 RMK AO2 SLP156 T02780100 55007
Conditions at: KPDX (PORTLAND , OR, US) observed 0253 UTC 15 July 2019
Temperature: 27.8°C (82°F)
Dewpoint: 10.0°C (50°F) [RH = 33%]
Pressure (altimeter): 29.99 inches Hg (1015.7 mb)
[Sea-level pressure: 1015.6 mb]
Winds: from the NW (320 degrees) at 10 MPH (9 knots; 4.6 m/s)
Visibility: 10 or more miles (16+ km)
Ceiling: at least 12,000 feet AGL
Clouds: few clouds at 7000 feet AGL
few clouds at 16000 feet AGL
few clouds at 25000 feet AGL
Weather: no significant weather observed at this time

METAR text: KPDX 150153Z 32007KT 10SM FEW060 FEW160 FEW250 28/11 A2999 RMK AO2 SLP155 T02830111
Conditions at: KPDX (PORTLAND , OR, US) observed 0153 UTC 15 July 2019
Temperature: 28.3°C (83°F)
Dewpoint: 11.1°C (52°F) [RH = 34%]
Pressure (altimeter): 29.99 inches Hg (1015.7 mb)
[Sea-level pressure: 1015.5 mb]
Winds: from the NW (320 degrees) at 8 MPH (7 knots; 3.6 m/s)
Visibility: 10 or more miles (16+ km)
Ceiling: at least 12,000 feet AGL
Clouds: few clouds at 6000 feet AGL
few clouds at 16000 feet AGL
few clouds at 25000 feet AGL
Weather: no significant weather observed at this time

METAR text: KPDX 150053Z 29009KT 10SM FEW060 FEW160 SCT250 29/11 A3000 RMK AO2 SLP158 T02890106
Conditions at: KPDX (PORTLAND , OR, US) observed 0053 UTC 15 July 2019
Temperature: 28.9°C (84°F)
Dewpoint: 10.6°C (51°F) [RH = 32%]
Pressure (altimeter): 30.00 inches Hg (1016.0 mb)
[Sea-level pressure: 1015.8 mb]
Winds: from the WNW (290 degrees) at 10 MPH (9 knots; 4.6 m/s)
Visibility: 10 or more miles (16+ km)
Ceiling: at least 12,000 feet AGL
Clouds: few clouds at 6000 feet AGL
few clouds at 16000 feet AGL
scattered clouds at 25000 feet AGL
Weather: no significant weather observed at this time

METAR text: KPDX 142353Z 29009KT 10SM FEW050 SCT250 28/11 A3002 RMK AO2 SLP163 T02830106 10289 20217 56015
Conditions at: KPDX (PORTLAND , OR, US) observed 2353 UTC 14 July 2019
Temperature: 28.3°C (83°F)
Dewpoint: 10.6°C (51°F) [RH = 33%]
Pressure (altimeter): 30.02 inches Hg (1016.7 mb)
[Sea-level pressure: 1016.3 mb]
Winds: from the WNW (290 degrees) at 10 MPH (9 knots; 4.6 m/s)
Visibility: 10 or more miles (16+ km)
Ceiling: at least 12,000 feet AGL
Clouds: few clouds at 5000 feet AGL
scattered clouds at 25000 feet AGL
Weather: no significant weather observed at this time

METAR text: KPDX 142253Z 29010KT 10SM FEW050 SCT250 29/09 A3003 RMK AO2 SLP168 T02890094
Conditions at: KPDX (PORTLAND , OR, US) observed 2253 UTC 14 July 2019
Temperature: 28.9°C (84°F)
Dewpoint: 9.4°C (49°F) [RH = 30%]
Pressure (altimeter): 30.03 inches Hg (1017.0 mb)
[Sea-level pressure: 1016.8 mb]
Winds: from the WNW (290 degrees) at 12 MPH (10 knots; 5.1 m/s)
Visibility: 10 or more miles (16+ km)
Ceiling: at least 12,000 feet AGL
Clouds: few clouds at 5000 feet AGL
scattered clouds at 25000 feet AGL
Weather: no significant weather observed at this time

METAR text: KPDX 142153Z 29006KT 10SM FEW050 FEW250 27/08 A3004 RMK AO2 SLP172 T02720083
Conditions at: KPDX (PORTLAND , OR, US) observed 2153 UTC 14 July 2019
Temperature: 27.2°C (81°F)
Dewpoint: 8.3°C (47°F) [RH = 30%]
Pressure (altimeter): 30.04 inches Hg (1017.4 mb)
[Sea-level pressure: 1017.2 mb]
Winds: from the WNW (290 degrees) at 7 MPH (6 knots; 3.1 m/s)
Visibility: 10 or more miles (16+ km)
Ceiling: at least 12,000 feet AGL
Clouds: few clouds at 5000 feet AGL
few clouds at 25000 feet AGL
Weather: no significant weather observed at this time

METAR text: KPDX 142053Z VRB06KT 10SM FEW050 FEW250 26/09 A3006 RMK AO2 SLP178 T02610094 58009
Conditions at: KPDX (PORTLAND , OR, US) observed 2053 UTC 14 July 2019
Temperature: 26.1°C (79°F)
Dewpoint: 9.4°C (49°F) [RH = 35%]
Pressure (altimeter): 30.06 inches Hg (1018.0 mb)
[Sea-level pressure: 1017.8 mb]
Winds: variable direction winds at 7 MPH (6 knots; 3.1 m/s)
Visibility: 10 or more miles (16+ km)
Ceiling: at least 12,000 feet AGL
Clouds: few clouds at 5000 feet AGL
few clouds at 25000 feet AGL
Weather: no significant weather observed at this time

METAR text: KPDX 141953Z 29008KT 10SM FEW030 25/09 A3007 RMK AO2 SLP183 T02500094
Conditions at: KPDX (PORTLAND , OR, US) observed 1953 UTC 14 July 2019
Temperature: 25.0°C (77°F)
Dewpoint: 9.4°C (49°F) [RH = 37%]
Pressure (altimeter): 30.07 inches Hg (1018.4 mb)
[Sea-level pressure: 1018.3 mb]
Winds: from the WNW (290 degrees) at 9 MPH (8 knots; 4.1 m/s)
Visibility: 10 or more miles (16+ km)
Ceiling: at least 12,000 feet AGL
Clouds: few clouds at 3000 feet AGL
Weather: no significant weather observed at this time

METAR text: KPDX 141853Z 30008KT 10SM FEW016 23/12 A3008 RMK AO2 SLP185 T02330122
Conditions at: KPDX (PORTLAND , OR, US) observed 1853 UTC 14 July 2019
Temperature: 23.3°C (74°F)
Dewpoint: 12.2°C (54°F) [RH = 50%]
Pressure (altimeter): 30.08 inches Hg (1018.7 mb)
[Sea-level pressure: 1018.5 mb]
Winds: from the WNW (300 degrees) at 9 MPH (8 knots; 4.1 m/s)
Visibility: 10 or more miles (16+ km)
Ceiling: at least 12,000 feet AGL
Clouds: few clouds at 1600 feet AGL
Weather: no significant weather observed at this time

METAR text: KPDX 141753Z VRB03KT 10SM FEW016 22/13 A3009 RMK AO2 SLP188 T02170133 10217 20167 58002
Conditions at: KPDX (PORTLAND , OR, US) observed 1753 UTC 14 July 2019
Temperature: 21.7°C (71°F)
Dewpoint: 13.3°C (56°F) [RH = 59%]
Pressure (altimeter): 30.09 inches Hg (1019.0 mb)
[Sea-level pressure: 1018.8 mb]
Winds: variable direction winds at 3 MPH (3 knots; 1.5 m/s)
Visibility: 10 or more miles (16+ km)
Ceiling: at least 12,000 feet AGL
Clouds: few clouds at 1600 feet AGL
Weather: no significant weather observed at this time

METAR text: KPDX 141653Z 27005KT 10SM FEW016 20/13 A3009 RMK AO2 SLP189 T02000133
Conditions at: KPDX (PORTLAND , OR, US) observed 1653 UTC 14 July 2019
Temperature: 20.0°C (68°F)
Dewpoint: 13.3°C (56°F) [RH = 65%]
Pressure (altimeter): 30.09 inches Hg (1019.0 mb)
[Sea-level pressure: 1018.9 mb]
Winds: from the W (270 degrees) at 6 MPH (5 knots; 2.6 m/s)
Visibility: 10 or more miles (16+ km)
Ceiling: at least 12,000 feet AGL
Clouds: few clouds at 1600 feet AGL
Weather: no significant weather observed at this time

METAR text: KPDX 141621Z 28007KT 10SM SCT016 19/13 A3010 RMK AO2 T01940133
Conditions at: KPDX (PORTLAND , OR, US) observed 1621 UTC 14 July 2019
Temperature: 19.4°C (67°F)
Dewpoint: 13.3°C (56°F) [RH = 68%]
Pressure (altimeter): 30.10 inches Hg (1019.4 mb)
Winds: from the W (280 degrees) at 8 MPH (7 knots; 3.6 m/s)
Visibility: 10 or more miles (16+ km)
Ceiling: at least 12,000 feet AGL
Clouds: scattered clouds at 1600 feet AGL
Weather: no significant weather observed at this time

METAR text: KPDX 141553Z VRB04KT 10SM BKN016 19/13 A3010 RMK AO2 SLP190 T01890133
Conditions at: KPDX (PORTLAND , OR, US) observed 1553 UTC 14 July 2019
Temperature: 18.9°C (66°F)
Dewpoint: 13.3°C (56°F) [RH = 70%]
Pressure (altimeter): 30.10 inches Hg (1019.4 mb)
[Sea-level pressure: 1019.0 mb]
Winds: variable direction winds at 5 MPH (4 knots; 2.1 m/s)
Visibility: 10 or more miles (16+ km)
Ceiling: 1600 feet AGL
Clouds: broken clouds at 1600 feet AGL
Weather: no significant weather observed at this time

METAR text: KPDX 141453Z 35003KT 10SM BKN013 17/13 A3010 RMK AO2 SLP190 T01720128 51009
Conditions at: KPDX (PORTLAND , OR, US) observed 1453 UTC 14 July 2019
Temperature: 17.2°C (63°F)
Dewpoint: 12.8°C (55°F) [RH = 75%]
Pressure (altimeter): 30.10 inches Hg (1019.4 mb)
[Sea-level pressure: 1019.0 mb]
Winds: from the N (350 degrees) at 3 MPH (3 knots; 1.5 m/s)
Visibility: 10 or more miles (16+ km)
Ceiling: 1300 feet AGL
Clouds: broken clouds at 1300 feet AGL
Weather: no significant weather observed at this time

Forecast for: KPDX (PORTLAND , OR, US)
Text: KPDX 152333Z 1600/1624 18004KT P6SM VCSH BKN050 BKN080
Forecast period: 0000 to 0900 UTC 16 July 2019
Forecast type: FROM: standard forecast or significant change
Winds: from the S (180 degrees) at 5 MPH (4 knots; 2.1 m/s)
Visibility: 6 or more miles 10+ km)
Ceiling: 5000 feet AGL
Clouds: broken clouds at 5000 feet AGL
broken clouds at 8000 feet AGL
Weather: VCSH  (showers in vicinity)
Text: FM160900 32004KT P6SM -SHRA BKN025 OVC040
Forecast period: 0900 to 1800 UTC 16 July 2019
Forecast type: FROM: standard forecast or significant change
Winds: from the NW (320 degrees) at 5 MPH (4 knots; 2.1 m/s)
Visibility: 6 or more miles 10+ km)
Ceiling: 2500 feet AGL
Clouds: broken clouds at 2500 feet AGL
overcast cloud deck at 4000 feet AGL
Weather: -SHRA  (light rain showers)
Text: FM161800 29006KT P6SM SCT025 BKN050
Forecast period: 1800 UTC 16 July 2019 to 0000 UTC 17 July 2019
Forecast type: FROM: standard forecast or significant change
Winds: from the WNW (290 degrees) at 7 MPH (6 knots; 3.1 m/s)
Visibility: 6 or more miles 10+ km)
Ceiling: 5000 feet AGL
Clouds: scattered clouds at 2500 feet AGL
broken clouds at 5000 feet AGL
Weather: no significant weather forecast for this period